sensor_id;sensor_type;location;lat;lon;timestamp;P1;durP1;ratioP1;P2;durP2;ratioP2
1460;SDS011;724;49.910;12.530;2023-06-14T00:00:16;8.27;;;7.87;;
1460;SDS011;724;49.910;12.530;2023-06-14T00:02:43;9.10;;;8.60;;
1460;SDS011;724;49.910;12.530;2023-06-14T00:05:10;8.77;;;8.27;;
1460;SDS011;724;49.910;12.530;2023-06-14T00:07:38;8.90;;;8.40;;
1460;SDS011;724;49.910;12.530;2023-06-14T00:10:08;8.80;;;8.30;;
1460;SDS011;724;49.910;12.530;2023-06-14T00:12:37;9.20;;;8.70;;
1460;SDS011;724;49.910;12.530;2023-06-14T00:15:05;9.00;;;8.50;;
1460;SDS011;724;49.910;12.530;2023-06-14T00:17:34;8.80;;;8.30;;
1460;SDS011;724;49.910;12.530;2023-06-14T00:20:02;9.03;;;8.53;;
1460;SDS011;724;49.910;12.530;2023-06-14T00:22:31;8.90;;;8.40;;
1460;SDS011;724;49.910;12.530;2023-06-14T00:24:57;8.60;;;8.10;;
1460;SDS011;724;49.910;12.530;2023-06-14T00:27:25;8.30;;;7.90;;
1460;SDS011;724;49.910;12.530;2023-06-14T00:29:53;8.60;;;8.10;;
1460;SDS011;724;49.910;12.530;2023-06-14T00:32:19;7.90;;;7.50;;
1460;SDS011;724;49.910;12.530;2023-06-14T00:34:50;8.77;;;8.27;;
1460;SDS011;724;49.910;12.530;2023-06-14T00:37:17;7.53;;;7.13;;
1460;SDS011;724;49.910;12.530;2023-06-14T00:39:44;7.93;;;7.53;;
1460;SDS011;724;49.910;12.530;2023-06-14T00:42:11;7.97;;;7.57;;
1460;SDS011;724;49.910;12.530;2023-06-14T00:44:48;8.17;;;7.77;;
1460;SDS011;724;49.910;12.530;2023-06-14T00:47:17;8.43;;;7.97;;
1460;SDS011;724;49.910;12.530;2023-06-14T00:49:45;8.60;;;8.10;;
1460;SDS011;724;49.910;12.530;2023-06-14T00:52:12;8.50;;;8.00;;
1460;SDS011;724;49.910;12.530;2023-06-14T00:54:39;8.30;;;7.90;;
1460;SDS011;724;49.910;12.530;2023-06-14T00:57:06;7.87;;;7.47;;
1460;SDS011;724;49.910;12.530;2023-06-14T00:59:34;7.60;;;7.20;;
1460;SDS011;724;49.910;12.530;2023-06-14T01:02:05;8.10;;;7.70;;
1460;SDS011;724;49.910;12.530;2023-06-14T01:04:33;8.30;;;7.90;;
1460;SDS011;724;49.910;12.530;2023-06-14T01:07:04;7.60;;;7.20;;
1460;SDS011;724;49.910;12.530;2023-06-14T01:09:41;8.00;;;7.60;;
1460;SDS011;724;49.910;12.530;2023-06-14T01:12:15;7.40;;;7.00;;
1460;SDS011;724;49.910;12.530;2023-06-14T01:14:47;7.50;;;7.10;;
1460;SDS011;724;49.910;12.530;2023-06-14T01:17:16;7.30;;;6.90;;
1460;SDS011;724;49.910;12.530;2023-06-14T01:19:45;7.00;;;6.60;;
1460;SDS011;724;49.910;12.530;2023-06-14T01:22:12;7.40;;;7.00;;
1460;SDS011;724;49.910;12.530;2023-06-14T01:24:40;7.13;;;6.73;;
1460;SDS011;724;49.910;12.530;2023-06-14T01:27:09;7.27;;;6.87;;
1460;SDS011;724;49.910;12.530;2023-06-14T01:29:37;7.47;;;7.07;;
1460;SDS011;724;49.910;12.530;2023-06-14T01:32:10;7.60;;;7.20;;
1460;SDS011;724;49.910;12.530;2023-06-14T01:34:38;7.07;;;6.67;;
1460;SDS011;724;49.910;12.530;2023-06-14T01:37:05;7.30;;;6.90;;
1460;SDS011;724;49.910;12.530;2023-06-14T01:39:32;7.40;;;7.00;;
1460;SDS011;724;49.910;12.530;2023-06-14T01:42:02;7.00;;;6.60;;
1460;SDS011;724;49.910;12.530;2023-06-14T01:44:30;7.30;;;6.90;;
1460;SDS011;724;49.910;12.530;2023-06-14T01:46:57;7.30;;;6.90;;
1460;SDS011;724;49.910;12.530;2023-06-14T01:49:25;7.43;;;7.03;;
1460;SDS011;724;49.910;12.530;2023-06-14T01:51:52;7.47;;;7.07;;
1460;SDS011;724;49.910;12.530;2023-06-14T01:54:19;7.50;;;7.10;;
1460;SDS011;724;49.910;12.530;2023-06-14T01:56:46;7.20;;;6.80;;
1460;SDS011;724;49.910;12.530;2023-06-14T01:59:14;7.30;;;6.90;;
1460;SDS011;724;49.910;12.530;2023-06-14T02:01:41;7.28;;;6.88;;
1460;SDS011;724;49.910;12.530;2023-06-14T02:04:09;6.80;;;6.40;;
1460;SDS011;724;49.910;12.530;2023-06-14T02:06:36;6.47;;;6.07;;
1460;SDS011;724;49.910;12.530;2023-06-14T02:09:02;6.90;;;6.50;;
1460;SDS011;724;49.910;12.530;2023-06-14T02:11:29;6.88;;;6.47;;
1460;SDS011;724;49.910;12.530;2023-06-14T02:13:56;7.15;;;6.75;;
1460;SDS011;724;49.910;12.530;2023-06-14T02:16:26;6.90;;;6.50;;
1460;SDS011;724;49.910;12.530;2023-06-14T02:18:54;6.43;;;6.03;;
1460;SDS011;724;49.910;12.530;2023-06-14T02:21:22;6.15;;;5.85;;
1460;SDS011;724;49.910;12.530;2023-06-14T02:23:49;6.10;;;5.80;;
1460;SDS011;724;49.910;12.530;2023-06-14T02:26:15;6.53;;;6.13;;
1460;SDS011;724;49.910;12.530;2023-06-14T02:28:42;6.70;;;6.30;;
1460;SDS011;724;49.910;12.530;2023-06-14T02:31:09;6.78;;;6.38;;
1460;SDS011;724;49.910;12.530;2023-06-14T02:33:37;6.68;;;6.28;;
1460;SDS011;724;49.910;12.530;2023-06-14T02:36:04;6.80;;;6.40;;
1460;SDS011;724;49.910;12.530;2023-06-14T02:38:32;7.20;;;6.80;;
1460;SDS011;724;49.910;12.530;2023-06-14T02:40:59;7.50;;;7.10;;
1460;SDS011;724;49.910;12.530;2023-06-14T02:43:28;7.70;;;7.30;;
1460;SDS011;724;49.910;12.530;2023-06-14T02:45:55;7.30;;;6.90;;
1460;SDS011;724;49.910;12.530;2023-06-14T02:48:22;7.20;;;6.80;;
1460;SDS011;724;49.910;12.530;2023-06-14T02:50:50;7.10;;;6.70;;
1460;SDS011;724;49.910;12.530;2023-06-14T02:53:17;6.95;;;6.55;;
1460;SDS011;724;49.910;12.530;2023-06-14T02:55:44;7.75;;;7.35;;
1460;SDS011;724;49.910;12.530;2023-06-14T02:58:11;7.00;;;6.60;;
1460;SDS011;724;49.910;12.530;2023-06-14T03:00:38;7.00;;;6.60;;
1460;SDS011;724;49.910;12.530;2023-06-14T03:03:05;6.60;;;6.20;;
1460;SDS011;724;49.910;12.530;2023-06-14T03:05:40;6.10;;;5.80;;
1460;SDS011;724;49.910;12.530;2023-06-14T03:08:12;6.50;;;6.10;;
1460;SDS011;724;49.910;12.530;2023-06-14T03:10:41;6.53;;;6.13;;
1460;SDS011;724;49.910;12.530;2023-06-14T03:13:08;6.55;;;6.15;;
1460;SDS011;724;49.910;12.530;2023-06-14T03:15:36;6.57;;;6.18;;
1460;SDS011;724;49.910;12.530;2023-06-14T03:18:03;6.70;;;6.30;;
1460;SDS011;724;49.910;12.530;2023-06-14T03:20:30;6.60;;;6.20;;
1460;SDS011;724;49.910;12.530;2023-06-14T03:22:58;7.20;;;6.80;;
1460;SDS011;724;49.910;12.530;2023-06-14T03:25:27;7.30;;;6.90;;
1460;SDS011;724;49.910;12.530;2023-06-14T03:27:55;7.57;;;7.18;;
1460;SDS011;724;49.910;12.530;2023-06-14T03:30:21;7.55;;;7.15;;
1460;SDS011;724;49.910;12.530;2023-06-14T03:32:49;7.40;;;7.00;;
1460;SDS011;724;49.910;12.530;2023-06-14T03:35:17;7.90;;;7.50;;
1460;SDS011;724;49.910;12.530;2023-06-14T03:37:44;8.20;;;7.80;;
1460;SDS011;724;49.910;12.530;2023-06-14T03:40:12;8.10;;;7.70;;
1460;SDS011;724;49.910;12.530;2023-06-14T03:42:41;8.20;;;7.80;;
1460;SDS011;724;49.910;12.530;2023-06-14T03:45:07;7.80;;;7.40;;
1460;SDS011;724;49.910;12.530;2023-06-14T03:47:35;7.88;;;7.47;;
1460;SDS011;724;49.910;12.530;2023-06-14T03:50:02;7.90;;;7.50;;
1460;SDS011;724;49.910;12.530;2023-06-14T03:52:29;8.10;;;7.70;;
1460;SDS011;724;49.910;12.530;2023-06-14T03:54:57;7.60;;;7.20;;
1460;SDS011;724;49.910;12.530;2023-06-14T03:57:25;7.80;;;7.40;;
1460;SDS011;724;49.910;12.530;2023-06-14T03:59:53;8.00;;;7.60;;
1460;SDS011;724;49.910;12.530;2023-06-14T04:02:20;7.72;;;7.32;;
1460;SDS011;724;49.910;12.530;2023-06-14T04:04:47;7.45;;;7.05;;
1460;SDS011;724;49.910;12.530;2023-06-14T04:07:14;6.90;;;6.50;;
1460;SDS011;724;49.910;12.530;2023-06-14T04:09:44;7.00;;;6.60;;
1460;SDS011;724;49.910;12.530;2023-06-14T04:12:11;7.30;;;6.90;;
1460;SDS011;724;49.910;12.530;2023-06-14T04:14:38;6.80;;;6.40;;
1460;SDS011;724;49.910;12.530;2023-06-14T04:17:07;7.30;;;6.90;;
1460;SDS011;724;49.910;12.530;2023-06-14T04:19:34;7.10;;;6.70;;
1460;SDS011;724;49.910;12.530;2023-06-14T04:22:00;7.20;;;6.80;;
1460;SDS011;724;49.910;12.530;2023-06-14T04:24:27;7.30;;;6.90;;
1460;SDS011;724;49.910;12.530;2023-06-14T04:26:57;7.70;;;7.30;;
1460;SDS011;724;49.910;12.530;2023-06-14T04:29:26;7.85;;;7.45;;
1460;SDS011;724;49.910;12.530;2023-06-14T04:31:54;7.60;;;7.20;;
1460;SDS011;724;49.910;12.530;2023-06-14T04:34:25;7.50;;;7.10;;
1460;SDS011;724;49.910;12.530;2023-06-14T04:36:55;7.90;;;7.50;;
1460;SDS011;724;49.910;12.530;2023-06-14T04:39:22;7.70;;;7.30;;
1460;SDS011;724;49.910;12.530;2023-06-14T04:41:50;7.50;;;7.10;;
1460;SDS011;724;49.910;12.530;2023-06-14T04:44:21;7.50;;;7.10;;
1460;SDS011;724;49.910;12.530;2023-06-14T04:46:54;7.40;;;7.00;;
1460;SDS011;724;49.910;12.530;2023-06-14T04:49:21;7.38;;;6.97;;
1460;SDS011;724;49.910;12.530;2023-06-14T04:51:50;7.15;;;6.75;;
1460;SDS011;724;49.910;12.530;2023-06-14T04:54:22;7.03;;;6.63;;
1460;SDS011;724;49.910;12.530;2023-06-14T04:56:49;7.20;;;6.80;;
1460;SDS011;724;49.910;12.530;2023-06-14T04:59:16;7.30;;;6.90;;
1460;SDS011;724;49.910;12.530;2023-06-14T05:01:44;7.70;;;7.30;;
1460;SDS011;724;49.910;12.530;2023-06-14T05:04:13;8.03;;;7.63;;
1460;SDS011;724;49.910;12.530;2023-06-14T05:06:40;8.00;;;7.60;;
1460;SDS011;724;49.910;12.530;2023-06-14T05:09:08;8.00;;;7.60;;
1460;SDS011;724;49.910;12.530;2023-06-14T05:11:35;8.23;;;7.83;;
1460;SDS011;724;49.910;12.530;2023-06-14T05:14:02;8.10;;;7.70;;
1460;SDS011;724;49.910;12.530;2023-06-14T05:16:28;8.10;;;7.70;;
1460;SDS011;724;49.910;12.530;2023-06-14T05:18:56;8.27;;;7.87;;
1460;SDS011;724;49.910;12.530;2023-06-14T05:21:23;7.87;;;7.47;;
1460;SDS011;724;49.910;12.530;2023-06-14T05:23:50;8.73;;;8.23;;
1460;SDS011;724;49.910;12.530;2023-06-14T05:26:18;8.90;;;8.40;;
1460;SDS011;724;49.910;12.530;2023-06-14T05:28:45;9.00;;;8.50;;
1460;SDS011;724;49.910;12.530;2023-06-14T05:31:12;8.80;;;8.30;;
1460;SDS011;724;49.910;12.530;2023-06-14T05:33:38;9.10;;;8.60;;
1460;SDS011;724;49.910;12.530;2023-06-14T05:36:07;8.90;;;8.40;;
1460;SDS011;724;49.910;12.530;2023-06-14T05:38:34;8.80;;;8.30;;
1460;SDS011;724;49.910;12.530;2023-06-14T05:41:00;9.00;;;8.50;;
1460;SDS011;724;49.910;12.530;2023-06-14T05:43:36;8.80;;;8.30;;
1460;SDS011;724;49.910;12.530;2023-06-14T05:46:04;8.83;;;8.33;;
1460;SDS011;724;49.910;12.530;2023-06-14T05:48:33;9.50;;;9.00;;
1460;SDS011;724;49.910;12.530;2023-06-14T05:51:01;9.27;;;8.77;;
1460;SDS011;724;49.910;12.530;2023-06-14T05:53:29;9.30;;;8.80;;
1460;SDS011;724;49.910;12.530;2023-06-14T05:55:59;9.20;;;8.70;;
1460;SDS011;724;49.910;12.530;2023-06-14T05:58:31;9.40;;;8.90;;
1460;SDS011;724;49.910;12.530;2023-06-14T06:01:03;9.40;;;8.90;;
1460;SDS011;724;49.910;12.530;2023-06-14T06:03:34;9.77;;;9.27;;
1460;SDS011;724;49.910;12.530;2023-06-14T06:06:01;9.50;;;9.00;;
1460;SDS011;724;49.910;12.530;2023-06-14T06:08:29;9.80;;;9.30;;
1460;SDS011;724;49.910;12.530;2023-06-14T06:10:56;9.80;;;9.30;;
1460;SDS011;724;49.910;12.530;2023-06-14T06:13:23;9.90;;;9.40;;
1460;SDS011;724;49.910;12.530;2023-06-14T06:15:51;9.60;;;9.10;;
1460;SDS011;724;49.910;12.530;2023-06-14T06:18:17;9.70;;;9.20;;
1460;SDS011;724;49.910;12.530;2023-06-14T06:20:44;9.83;;;9.33;;
1460;SDS011;724;49.910;12.530;2023-06-14T06:23:12;9.40;;;8.90;;
1460;SDS011;724;49.910;12.530;2023-06-14T06:25:39;9.50;;;9.00;;
1460;SDS011;724;49.910;12.530;2023-06-14T06:28:06;9.70;;;9.20;;
1460;SDS011;724;49.910;12.530;2023-06-14T06:30:33;9.80;;;9.30;;
1460;SDS011;724;49.910;12.530;2023-06-14T06:33:02;9.90;;;9.40;;
1460;SDS011;724;49.910;12.530;2023-06-14T06:35:29;9.80;;;9.30;;
1460;SDS011;724;49.910;12.530;2023-06-14T06:37:58;10.53;;;9.97;;
1460;SDS011;724;49.910;12.530;2023-06-14T06:40:28;10.10;;;9.60;;
1460;SDS011;724;49.910;12.530;2023-06-14T06:42:55;10.10;;;9.60;;
1460;SDS011;724;49.910;12.530;2023-06-14T06:45:21;9.90;;;9.40;;
1460;SDS011;724;49.910;12.530;2023-06-14T06:47:56;9.70;;;9.20;;
1460;SDS011;724;49.910;12.530;2023-06-14T06:50:24;9.90;;;9.40;;
1460;SDS011;724;49.910;12.530;2023-06-14T06:52:51;9.90;;;9.40;;
1460;SDS011;724;49.910;12.530;2023-06-14T06:55:17;10.00;;;9.50;;
1460;SDS011;724;49.910;12.530;2023-06-14T06:57:44;10.00;;;9.50;;
1460;SDS011;724;49.910;12.530;2023-06-14T07:00:11;10.00;;;9.50;;
1460;SDS011;724;49.910;12.530;2023-06-14T07:02:38;9.87;;;9.37;;
1460;SDS011;724;49.910;12.530;2023-06-14T07:05:05;9.80;;;9.30;;
1460;SDS011;724;49.910;12.530;2023-06-14T07:07:34;9.80;;;9.30;;
1460;SDS011;724;49.910;12.530;2023-06-14T07:10:00;9.80;;;9.30;;
1460;SDS011;724;49.910;12.530;2023-06-14T07:12:29;9.97;;;9.47;;
1460;SDS011;724;49.910;12.530;2023-06-14T07:14:56;10.20;;;9.70;;
1460;SDS011;724;49.910;12.530;2023-06-14T07:17:23;9.83;;;9.33;;
1460;SDS011;724;49.910;12.530;2023-06-14T07:19:50;9.57;;;9.07;;
1460;SDS011;724;49.910;12.530;2023-06-14T07:22:18;9.43;;;8.93;;
1460;SDS011;724;49.910;12.530;2023-06-14T07:24:46;9.97;;;9.47;;
1460;SDS011;724;49.910;12.530;2023-06-14T07:27:13;9.70;;;9.20;;
1460;SDS011;724;49.910;12.530;2023-06-14T07:29:40;9.40;;;8.90;;
1460;SDS011;724;49.910;12.530;2023-06-14T07:32:07;9.90;;;9.40;;
1460;SDS011;724;49.910;12.530;2023-06-14T07:34:33;9.70;;;9.20;;
1460;SDS011;724;49.910;12.530;2023-06-14T07:37:00;10.10;;;9.60;;
1460;SDS011;724;49.910;12.530;2023-06-14T07:39:27;10.10;;;9.60;;
1460;SDS011;724;49.910;12.530;2023-06-14T07:41:55;10.00;;;9.50;;
1460;SDS011;724;49.910;12.530;2023-06-14T07:44:23;9.80;;;9.30;;
1460;SDS011;724;49.910;12.530;2023-06-14T07:46:50;9.73;;;9.23;;
1460;SDS011;724;49.910;12.530;2023-06-14T07:49:17;9.60;;;9.10;;
1460;SDS011;724;49.910;12.530;2023-06-14T07:51:43;9.43;;;8.93;;
1460;SDS011;724;49.910;12.530;2023-06-14T07:54:11;9.40;;;8.90;;
1460;SDS011;724;49.910;12.530;2023-06-14T07:56:39;9.80;;;9.30;;
1460;SDS011;724;49.910;12.530;2023-06-14T07:59:07;9.50;;;9.00;;
1460;SDS011;724;49.910;12.530;2023-06-14T08:01:37;9.80;;;9.30;;
1460;SDS011;724;49.910;12.530;2023-06-14T08:04:05;9.60;;;9.10;;
1460;SDS011;724;49.910;12.530;2023-06-14T08:06:34;8.90;;;8.40;;
1460;SDS011;724;49.910;12.530;2023-06-14T08:09:01;9.40;;;8.90;;
1460;SDS011;724;49.910;12.530;2023-06-14T08:11:28;9.20;;;8.70;;
1460;SDS011;724;49.910;12.530;2023-06-14T08:13:56;8.83;;;8.33;;
1460;SDS011;724;49.910;12.530;2023-06-14T08:16:24;9.40;;;8.90;;
1460;SDS011;724;49.910;12.530;2023-06-14T08:18:51;9.80;;;9.30;;
1460;SDS011;724;49.910;12.530;2023-06-14T08:21:18;9.60;;;9.10;;
1460;SDS011;724;49.910;12.530;2023-06-14T08:23:45;9.70;;;9.20;;
1460;SDS011;724;49.910;12.530;2023-06-14T08:26:12;9.70;;;9.20;;
1460;SDS011;724;49.910;12.530;2023-06-14T08:28:39;8.90;;;8.40;;
1460;SDS011;724;49.910;12.530;2023-06-14T08:31:08;9.30;;;8.80;;
1460;SDS011;724;49.910;12.530;2023-06-14T08:33:36;9.43;;;8.93;;
1460;SDS011;724;49.910;12.530;2023-06-14T08:36:04;9.60;;;9.10;;
1460;SDS011;724;49.910;12.530;2023-06-14T08:38:31;9.40;;;8.90;;
1460;SDS011;724;49.910;12.530;2023-06-14T08:40:58;9.97;;;9.47;;
1460;SDS011;724;49.910;12.530;2023-06-14T08:43:28;9.50;;;9.00;;
1460;SDS011;724;49.910;12.530;2023-06-14T08:45:57;9.90;;;9.40;;
1460;SDS011;724;49.910;12.530;2023-06-14T08:48:26;10.20;;;9.70;;
1460;SDS011;724;49.910;12.530;2023-06-14T08:50:55;9.50;;;9.00;;
1460;SDS011;724;49.910;12.530;2023-06-14T08:53:27;10.10;;;9.60;;
1460;SDS011;724;49.910;12.530;2023-06-14T08:55:56;9.20;;;8.70;;
1460;SDS011;724;49.910;12.530;2023-06-14T08:58:26;9.77;;;9.27;;
1460;SDS011;724;49.910;12.530;2023-06-14T09:00:54;9.33;;;8.83;;
1460;SDS011;724;49.910;12.530;2023-06-14T09:03:21;10.00;;;9.50;;
1460;SDS011;724;49.910;12.530;2023-06-14T09:05:57;10.10;;;9.60;;
1460;SDS011;724;49.910;12.530;2023-06-14T09:08:25;9.60;;;9.10;;
1460;SDS011;724;49.910;12.530;2023-06-14T09:10:55;9.50;;;9.00;;
1460;SDS011;724;49.910;12.530;2023-06-14T09:13:23;10.80;;;10.20;;
1460;SDS011;724;49.910;12.530;2023-06-14T09:15:52;10.00;;;9.50;;
1460;SDS011;724;49.910;12.530;2023-06-14T09:18:18;9.27;;;8.77;;
1460;SDS011;724;49.910;12.530;2023-06-14T09:20:46;10.00;;;9.50;;
1460;SDS011;724;49.910;12.530;2023-06-14T09:23:14;10.30;;;9.80;;
1460;SDS011;724;49.910;12.530;2023-06-14T09:25:47;10.20;;;9.70;;
1460;SDS011;724;49.910;12.530;2023-06-14T09:28:15;9.93;;;9.43;;
1460;SDS011;724;49.910;12.530;2023-06-14T09:30:41;9.40;;;8.90;;
1460;SDS011;724;49.910;12.530;2023-06-14T09:33:08;9.10;;;8.60;;
1460;SDS011;724;49.910;12.530;2023-06-14T09:35:38;9.30;;;8.80;;
1460;SDS011;724;49.910;12.530;2023-06-14T09:38:06;9.40;;;8.90;;
1460;SDS011;724;49.910;12.530;2023-06-14T09:40:35;9.10;;;8.60;;
1460;SDS011;724;49.910;12.530;2023-06-14T09:43:05;9.30;;;8.80;;
1460;SDS011;724;49.910;12.530;2023-06-14T09:45:34;9.20;;;8.70;;
1460;SDS011;724;49.910;12.530;2023-06-14T09:48:01;9.17;;;8.67;;
1460;SDS011;724;49.910;12.530;2023-06-14T09:50:30;9.20;;;8.70;;
1460;SDS011;724;49.910;12.530;2023-06-14T09:52:57;9.63;;;9.13;;
1460;SDS011;724;49.910;12.530;2023-06-14T09:55:29;9.57;;;9.07;;
1460;SDS011;724;49.910;12.530;2023-06-14T09:58:00;9.70;;;9.20;;
1460;SDS011;724;49.910;12.530;2023-06-14T10:00:31;10.10;;;9.60;;
1460;SDS011;724;49.910;12.530;2023-06-14T10:03:00;9.90;;;9.40;;
1460;SDS011;724;49.910;12.530;2023-06-14T10:05:32;10.63;;;10.03;;
1460;SDS011;724;49.910;12.530;2023-06-14T10:08:04;10.90;;;10.30;;
1460;SDS011;724;49.910;12.530;2023-06-14T10:10:33;11.23;;;10.63;;
1460;SDS011;724;49.910;12.530;2023-06-14T10:13:02;10.80;;;10.20;;
1460;SDS011;724;49.910;12.530;2023-06-14T10:15:31;10.60;;;10.00;;
1460;SDS011;724;49.910;12.530;2023-06-14T10:18:04;9.83;;;9.33;;
1460;SDS011;724;49.910;12.530;2023-06-14T10:20:41;10.63;;;10.03;;
1460;SDS011;724;49.910;12.530;2023-06-14T10:23:13;9.73;;;9.23;;
1460;SDS011;724;49.910;12.530;2023-06-14T10:25:49;9.47;;;8.97;;
1460;SDS011;724;49.910;12.530;2023-06-14T10:28:18;10.17;;;9.67;;
1460;SDS011;724;49.910;12.530;2023-06-14T10:33:48;10.10;;;9.60;;
1460;SDS011;724;49.910;12.530;2023-06-14T10:36:26;9.50;;;9.00;;
1460;SDS011;724;49.910;12.530;2023-06-14T10:38:59;9.63;;;9.13;;
1460;SDS011;724;49.910;12.530;2023-06-14T10:41:28;9.40;;;8.90;;
1460;SDS011;724;49.910;12.530;2023-06-14T10:47:24;9.30;;;8.80;;
1460;SDS011;724;49.910;12.530;2023-06-14T10:49:56;9.90;;;9.40;;
1460;SDS011;724;49.910;12.530;2023-06-14T10:52:29;9.37;;;8.87;;
1460;SDS011;724;49.910;12.530;2023-06-14T10:55:08;9.13;;;8.63;;
1460;SDS011;724;49.910;12.530;2023-06-14T10:57:36;9.00;;;8.50;;
1460;SDS011;724;49.910;12.530;2023-06-14T11:00:05;9.33;;;8.83;;
1460;SDS011;724;49.910;12.530;2023-06-14T11:05:54;8.70;;;8.20;;
1460;SDS011;724;49.910;12.530;2023-06-14T11:08:36;8.63;;;8.13;;
1460;SDS011;724;49.910;12.530;2023-06-14T11:11:13;9.00;;;8.50;;
1460;SDS011;724;49.910;12.530;2023-06-14T11:13:41;9.30;;;8.80;;
1460;SDS011;724;49.910;12.530;2023-06-14T11:16:10;9.70;;;9.20;;
1460;SDS011;724;49.910;12.530;2023-06-14T11:18:38;9.87;;;9.37;;
1460;SDS011;724;49.910;12.530;2023-06-14T11:21:06;9.70;;;9.20;;
1460;SDS011;724;49.910;12.530;2023-06-14T11:23:34;8.90;;;8.40;;
1460;SDS011;724;49.910;12.530;2023-06-14T11:26:01;9.20;;;8.70;;
1460;SDS011;724;49.910;12.530;2023-06-14T11:28:36;9.80;;;9.30;;
1460;SDS011;724;49.910;12.530;2023-06-14T11:31:03;9.87;;;9.37;;
1460;SDS011;724;49.910;12.530;2023-06-14T11:33:30;9.90;;;9.40;;
1460;SDS011;724;49.910;12.530;2023-06-14T11:35:57;10.20;;;9.70;;
1460;SDS011;724;49.910;12.530;2023-06-14T11:38:26;10.20;;;9.70;;
1460;SDS011;724;49.910;12.530;2023-06-14T11:40:52;10.40;;;9.90;;
1460;SDS011;724;49.910;12.530;2023-06-14T11:43:24;10.20;;;9.70;;
1460;SDS011;724;49.910;12.530;2023-06-14T11:45:54;10.30;;;9.80;;
1460;SDS011;724;49.910;12.530;2023-06-14T11:48:21;10.33;;;9.83;;
1460;SDS011;724;49.910;12.530;2023-06-14T11:50:49;10.70;;;10.10;;
1460;SDS011;724;49.910;12.530;2023-06-14T11:53:16;10.53;;;9.97;;
1460;SDS011;724;49.910;12.530;2023-06-14T11:55:45;10.13;;;9.63;;
1460;SDS011;724;49.910;12.530;2023-06-14T11:58:13;11.30;;;10.70;;
1460;SDS011;724;49.910;12.530;2023-06-14T12:00:41;11.60;;;11.00;;
1460;SDS011;724;49.910;12.530;2023-06-14T12:03:09;11.30;;;10.70;;
1460;SDS011;724;49.910;12.530;2023-06-14T12:05:40;11.20;;;10.60;;
1460;SDS011;724;49.910;12.530;2023-06-14T12:08:09;10.93;;;10.33;;
1460;SDS011;724;49.910;12.530;2023-06-14T12:10:42;10.70;;;10.10;;
1460;SDS011;724;49.910;12.530;2023-06-14T12:13:11;10.27;;;9.77;;
1460;SDS011;724;49.910;12.530;2023-06-14T12:15:37;11.00;;;10.40;;
1460;SDS011;724;49.910;12.530;2023-06-14T12:18:05;10.30;;;9.80;;
1460;SDS011;724;49.910;12.530;2023-06-14T12:20:33;10.40;;;9.90;;
1460;SDS011;724;49.910;12.530;2023-06-14T12:23:02;10.70;;;10.10;;
1460;SDS011;724;49.910;12.530;2023-06-14T12:25:30;10.70;;;10.10;;
1460;SDS011;724;49.910;12.530;2023-06-14T12:27:57;10.53;;;9.97;;
1460;SDS011;724;49.910;12.530;2023-06-14T12:30:27;10.80;;;10.20;;
1460;SDS011;724;49.910;12.530;2023-06-14T12:32:54;10.77;;;10.17;;
1460;SDS011;724;49.910;12.530;2023-06-14T12:35:21;11.20;;;10.60;;
1460;SDS011;724;49.910;12.530;2023-06-14T12:37:47;11.37;;;10.77;;
1460;SDS011;724;49.910;12.530;2023-06-14T12:40:14;10.60;;;10.00;;
1460;SDS011;724;49.910;12.530;2023-06-14T12:42:41;10.93;;;10.33;;
1460;SDS011;724;49.910;12.530;2023-06-14T12:45:08;10.60;;;10.00;;
1460;SDS011;724;49.910;12.530;2023-06-14T12:47:37;10.37;;;9.87;;
1460;SDS011;724;49.910;12.530;2023-06-14T12:50:04;11.30;;;10.70;;
1460;SDS011;724;49.910;12.530;2023-06-14T12:52:32;10.90;;;10.30;;
1460;SDS011;724;49.910;12.530;2023-06-14T12:55:01;11.57;;;10.97;;
1460;SDS011;724;49.910;12.530;2023-06-14T12:57:29;11.33;;;10.73;;
1460;SDS011;724;49.910;12.530;2023-06-14T12:59:56;11.37;;;10.77;;
1460;SDS011;724;49.910;12.530;2023-06-14T13:02:23;11.13;;;10.53;;
1460;SDS011;724;49.910;12.530;2023-06-14T13:04:52;11.80;;;11.20;;
1460;SDS011;724;49.910;12.530;2023-06-14T13:07:18;11.50;;;10.90;;
1460;SDS011;724;49.910;12.530;2023-06-14T13:09:45;12.03;;;11.43;;
1460;SDS011;724;49.910;12.530;2023-06-14T13:12:12;12.20;;;11.60;;
1460;SDS011;724;49.910;12.530;2023-06-14T13:14:39;11.70;;;11.10;;
1460;SDS011;724;49.910;12.530;2023-06-14T13:17:07;11.80;;;11.20;;
1460;SDS011;724;49.910;12.530;2023-06-14T13:19:34;11.33;;;10.73;;
1460;SDS011;724;49.910;12.530;2023-06-14T13:22:03;11.37;;;10.77;;
1460;SDS011;724;49.910;12.530;2023-06-14T13:24:30;11.20;;;10.60;;
1460;SDS011;724;49.910;12.530;2023-06-14T13:26:57;11.50;;;10.90;;
1460;SDS011;724;49.910;12.530;2023-06-14T13:29:24;11.60;;;11.00;;
1460;SDS011;724;49.910;12.530;2023-06-14T13:31:52;11.23;;;10.63;;
1460;SDS011;724;49.910;12.530;2023-06-14T13:34:20;11.77;;;11.17;;
1460;SDS011;724;49.910;12.530;2023-06-14T13:36:47;11.57;;;10.97;;
1460;SDS011;724;49.910;12.530;2023-06-14T13:39:16;10.53;;;9.97;;
1460;SDS011;724;49.910;12.530;2023-06-14T13:41:43;10.60;;;10.00;;
1460;SDS011;724;49.910;12.530;2023-06-14T13:44:09;10.60;;;10.00;;
1460;SDS011;724;49.910;12.530;2023-06-14T13:46:39;11.23;;;10.63;;
1460;SDS011;724;49.910;12.530;2023-06-14T13:49:07;11.10;;;10.50;;
1460;SDS011;724;49.910;12.530;2023-06-14T13:51:35;12.33;;;11.73;;
1460;SDS011;724;49.910;12.530;2023-06-14T13:54:02;12.47;;;11.87;;
1460;SDS011;724;49.910;12.530;2023-06-14T13:56:30;11.90;;;11.30;;
1460;SDS011;724;49.910;12.530;2023-06-14T13:58:57;11.90;;;11.30;;
1460;SDS011;724;49.910;12.530;2023-06-14T14:01:24;11.80;;;11.20;;
1460;SDS011;724;49.910;12.530;2023-06-14T14:03:54;11.57;;;10.97;;
1460;SDS011;724;49.910;12.530;2023-06-14T14:06:21;11.50;;;10.90;;
1460;SDS011;724;49.910;12.530;2023-06-14T14:08:48;12.30;;;11.70;;
1460;SDS011;724;49.910;12.530;2023-06-14T14:11:18;11.27;;;10.67;;
1460;SDS011;724;49.910;12.530;2023-06-14T14:13:46;11.20;;;10.60;;
1460;SDS011;724;49.910;12.530;2023-06-14T14:16:15;10.90;;;10.30;;
1460;SDS011;724;49.910;12.530;2023-06-14T14:18:45;10.90;;;10.30;;
1460;SDS011;724;49.910;12.530;2023-06-14T14:21:12;10.60;;;10.00;;
1460;SDS011;724;49.910;12.530;2023-06-14T14:23:39;10.90;;;10.30;;
1460;SDS011;724;49.910;12.530;2023-06-14T14:26:07;10.40;;;9.90;;
1460;SDS011;724;49.910;12.530;2023-06-14T14:28:34;10.70;;;10.10;;
1460;SDS011;724;49.910;12.530;2023-06-14T14:31:02;10.63;;;10.03;;
1460;SDS011;724;49.910;12.530;2023-06-14T14:33:29;10.40;;;9.90;;
1460;SDS011;724;49.910;12.530;2023-06-14T14:35:56;10.70;;;10.10;;
1460;SDS011;724;49.910;12.530;2023-06-14T14:38:23;10.00;;;9.50;;
1460;SDS011;724;49.910;12.530;2023-06-14T14:40:49;10.70;;;10.10;;
1460;SDS011;724;49.910;12.530;2023-06-14T14:43:16;10.00;;;9.50;;
1460;SDS011;724;49.910;12.530;2023-06-14T14:45:43;10.90;;;10.30;;
1460;SDS011;724;49.910;12.530;2023-06-14T14:48:13;11.60;;;11.00;;
1460;SDS011;724;49.910;12.530;2023-06-14T14:50:40;11.83;;;11.23;;
1460;SDS011;724;49.910;12.530;2023-06-14T14:53:07;11.40;;;10.80;;
1460;SDS011;724;49.910;12.530;2023-06-14T14:55:33;10.67;;;10.07;;
1460;SDS011;724;49.910;12.530;2023-06-14T14:58:02;10.80;;;10.20;;
1460;SDS011;724;49.910;12.530;2023-06-14T15:00:29;11.10;;;10.50;;
1460;SDS011;724;49.910;12.530;2023-06-14T15:02:56;11.20;;;10.60;;
1460;SDS011;724;49.910;12.530;2023-06-14T15:05:24;11.40;;;10.80;;
1460;SDS011;724;49.910;12.530;2023-06-14T15:07:51;10.90;;;10.30;;
1460;SDS011;724;49.910;12.530;2023-06-14T15:10:20;11.17;;;10.57;;
1460;SDS011;724;49.910;12.530;2023-06-14T15:15:15;10.53;;;9.97;;
1460;SDS011;724;49.910;12.530;2023-06-14T15:17:42;10.80;;;10.20;;
1460;SDS011;724;49.910;12.530;2023-06-14T15:20:09;10.00;;;9.50;;
1460;SDS011;724;49.910;12.530;2023-06-14T15:22:39;10.13;;;9.63;;
1460;SDS011;724;49.910;12.530;2023-06-14T15:25:06;10.77;;;10.17;;